sensor_id;sensor_type;location;lat;lon;timestamp;temperature;humidity
32839;DHT22;19182;41.820;12.808;2023-06-26T00:00:50;19.10;99.90
32839;DHT22;19182;41.820;12.808;2023-06-26T00:03:15;19.00;99.90
32839;DHT22;19182;41.820;12.808;2023-06-26T00:05:41;18.90;99.90
32839;DHT22;19182;41.820;12.808;2023-06-26T00:08:08;18.90;99.90
32839;DHT22;19182;41.820;12.808;2023-06-26T00:10:34;18.80;99.90
32839;DHT22;19182;41.820;12.808;2023-06-26T00:13:01;18.60;99.90
32839;DHT22;19182;41.820;12.808;2023-06-26T00:15:27;18.60;99.90
32839;DHT22;19182;41.820;12.808;2023-06-26T00:17:57;18.60;99.90
32839;DHT22;19182;41.820;12.808;2023-06-26T00:20:24;18.60;99.90
32839;DHT22;19182;41.820;12.808;2023-06-26T00:22:52;18.50;99.90
32839;DHT22;19182;41.820;12.808;2023-06-26T00:25:20;18.30;99.90
32839;DHT22;19182;41.820;12.808;2023-06-26T00:27:46;18.40;99.90
32839;DHT22;19182;41.820;12.808;2023-06-26T00:30:12;18.40;99.90
32839;DHT22;19182;41.820;12.808;2023-06-26T00:32:37;18.40;99.90
32839;DHT22;19182;41.820;12.808;2023-06-26T00:35:03;18.60;99.90
32839;DHT22;19182;41.820;12.808;2023-06-26T00:37:29;18.60;99.90
32839;DHT22;19182;41.820;12.808;2023-06-26T00:39:54;18.40;99.90
32839;DHT22;19182;41.820;12.808;2023-06-26T00:42:20;18.40;99.90
32839;DHT22;19182;41.820;12.808;2023-06-26T00:44:46;18.40;99.90
32839;DHT22;19182;41.820;12.808;2023-06-26T00:47:14;18.50;99.90
32839;DHT22;19182;41.820;12.808;2023-06-26T00:49:41;18.40;99.90
32839;DHT22;19182;41.820;12.808;2023-06-26T00:52:06;18.40;99.90
32839;DHT22;19182;41.820;12.808;2023-06-26T00:54:33;18.40;99.90
32839;DHT22;19182;41.820;12.808;2023-06-26T00:56:58;18.30;99.90
32839;DHT22;19182;41.820;12.808;2023-06-26T00:59:24;18.20;99.90
32839;DHT22;19182;41.820;12.808;2023-06-26T01:01:50;18.30;99.90
32839;DHT22;19182;41.820;12.808;2023-06-26T01:04:16;18.30;99.90
32839;DHT22;19182;41.820;12.808;2023-06-26T01:06:46;18.00;99.90
32839;DHT22;19182;41.820;12.808;2023-06-26T01:09:20;18.20;99.90
32839;DHT22;19182;41.820;12.808;2023-06-26T01:11:46;18.20;99.90
32839;DHT22;19182;41.820;12.808;2023-06-26T01:14:12;18.10;99.90
32839;DHT22;19182;41.820;12.808;2023-06-26T01:16:39;18.10;99.90
32839;DHT22;19182;41.820;12.808;2023-06-26T01:19:25;18.10;99.90
32839;DHT22;19182;41.820;12.808;2023-06-26T01:22:02;18.10;99.90
32839;DHT22;19182;41.820;12.808;2023-06-26T01:24:45;18.00;99.90
32839;DHT22;19182;41.820;12.808;2023-06-26T01:27:13;18.10;99.90
32839;DHT22;19182;41.820;12.808;2023-06-26T01:29:40;18.00;99.90
32839;DHT22;19182;41.820;12.808;2023-06-26T01:32:09;17.90;99.90
32839;DHT22;19182;41.820;12.808;2023-06-26T01:34:35;17.90;99.90
32839;DHT22;19182;41.820;12.808;2023-06-26T01:37:01;17.90;99.90
32839;DHT22;19182;41.820;12.808;2023-06-26T01:39:26;17.90;99.90
32839;DHT22;19182;41.820;12.808;2023-06-26T01:41:52;18.00;99.90
32839;DHT22;19182;41.820;12.808;2023-06-26T01:44:29;17.90;99.90
32839;DHT22;19182;41.820;12.808;2023-06-26T01:47:05;17.80;99.90
32839;DHT22;19182;41.820;12.808;2023-06-26T01:49:46;17.50;99.90
32839;DHT22;19182;41.820;12.808;2023-06-26T01:55:24;17.20;99.90
32839;DHT22;19182;41.820;12.808;2023-06-26T01:57:56;17.10;99.90
32839;DHT22;19182;41.820;12.808;2023-06-26T02:00:23;17.20;99.90
32839;DHT22;19182;41.820;12.808;2023-06-26T02:02:50;17.20;99.90
32839;DHT22;19182;41.820;12.808;2023-06-26T02:05:15;17.30;99.90
32839;DHT22;19182;41.820;12.808;2023-06-26T02:07:41;17.40;99.90
32839;DHT22;19182;41.820;12.808;2023-06-26T02:10:07;17.40;99.90
32839;DHT22;19182;41.820;12.808;2023-06-26T02:12:34;17.50;99.90
32839;DHT22;19182;41.820;12.808;2023-06-26T02:15:01;17.60;99.90
32839;DHT22;19182;41.820;12.808;2023-06-26T02:17:27;17.40;99.90
32839;DHT22;19182;41.820;12.808;2023-06-26T02:19:53;17.30;99.90
32839;DHT22;19182;41.820;12.808;2023-06-26T02:22:18;17.40;99.90
32839;DHT22;19182;41.820;12.808;2023-06-26T02:24:44;17.40;99.90
32839;DHT22;19182;41.820;12.808;2023-06-26T02:27:10;17.50;99.90
32839;DHT22;19182;41.820;12.808;2023-06-26T02:29:36;17.40;99.90
32839;DHT22;19182;41.820;12.808;2023-06-26T02:32:02;17.30;99.90
32839;DHT22;19182;41.820;12.808;2023-06-26T02:34:28;17.30;99.90
32839;DHT22;19182;41.820;12.808;2023-06-26T02:36:54;17.30;99.90
32839;DHT22;19182;41.820;12.808;2023-06-26T02:39:21;17.40;99.90
32839;DHT22;19182;41.820;12.808;2023-06-26T02:41:46;17.40;99.90
32839;DHT22;19182;41.820;12.808;2023-06-26T02:44:12;17.40;99.90
32839;DHT22;19182;41.820;12.808;2023-06-26T02:46:39;17.30;99.90
32839;DHT22;19182;41.820;12.808;2023-06-26T02:49:04;17.30;99.90
32839;DHT22;19182;41.820;12.808;2023-06-26T02:51:32;17.10;99.90
32839;DHT22;19182;41.820;12.808;2023-06-26T02:53:58;16.90;99.90
32839;DHT22;19182;41.820;12.808;2023-06-26T02:56:24;17.00;99.90
32839;DHT22;19182;41.820;12.808;2023-06-26T02:58:49;17.00;99.90
32839;DHT22;19182;41.820;12.808;2023-06-26T03:01:15;16.90;99.90
32839;DHT22;19182;41.820;12.808;2023-06-26T03:03:43;16.90;99.90
32839;DHT22;19182;41.820;12.808;2023-06-26T03:06:08;16.90;99.90
32839;DHT22;19182;41.820;12.808;2023-06-26T03:08:37;16.90;99.90
32839;DHT22;19182;41.820;12.808;2023-06-26T03:11:05;16.90;99.90
32839;DHT22;19182;41.820;12.808;2023-06-26T03:13:31;16.80;99.90
32839;DHT22;19182;41.820;12.808;2023-06-26T03:15:57;17.00;99.90
32839;DHT22;19182;41.820;12.808;2023-06-26T03:18:22;16.70;99.90
32839;DHT22;19182;41.820;12.808;2023-06-26T03:20:48;16.70;99.90
32839;DHT22;19182;41.820;12.808;2023-06-26T03:23:14;16.60;99.90
32839;DHT22;19182;41.820;12.808;2023-06-26T03:25:39;16.70;99.90
32839;DHT22;19182;41.820;12.808;2023-06-26T03:28:05;16.80;99.90
32839;DHT22;19182;41.820;12.808;2023-06-26T03:30:31;16.70;99.90
32839;DHT22;19182;41.820;12.808;2023-06-26T03:32:58;16.80;99.90
32839;DHT22;19182;41.820;12.808;2023-06-26T03:35:23;16.70;99.90
32839;DHT22;19182;41.820;12.808;2023-06-26T03:37:51;16.60;99.90
32839;DHT22;19182;41.820;12.808;2023-06-26T03:40:16;16.70;99.90
32839;DHT22;19182;41.820;12.808;2023-06-26T03:42:42;16.80;99.90
32839;DHT22;19182;41.820;12.808;2023-06-26T03:45:08;16.60;99.90
32839;DHT22;19182;41.820;12.808;2023-06-26T03:47:34;16.50;99.90
32839;DHT22;19182;41.820;12.808;2023-06-26T03:49:59;16.60;99.90
32839;DHT22;19182;41.820;12.808;2023-06-26T03:52:25;16.40;99.90
32839;DHT22;19182;41.820;12.808;2023-06-26T03:54:51;16.60;99.90
32839;DHT22;19182;41.820;12.808;2023-06-26T03:57:16;16.40;99.90
32839;DHT22;19182;41.820;12.808;2023-06-26T03:59:42;16.30;99.90
32839;DHT22;19182;41.820;12.808;2023-06-26T04:02:07;16.30;99.90
32839;DHT22;19182;41.820;12.808;2023-06-26T04:04:33;16.40;99.90
32839;DHT22;19182;41.820;12.808;2023-06-26T04:07:00;16.40;99.90
32839;DHT22;19182;41.820;12.808;2023-06-26T04:09:26;16.60;99.90
32839;DHT22;19182;41.820;12.808;2023-06-26T04:11:51;16.60;99.90
32839;DHT22;19182;41.820;12.808;2023-06-26T04:14:18;16.70;99.90
32839;DHT22;19182;41.820;12.808;2023-06-26T04:16:44;16.80;99.90
32839;DHT22;19182;41.820;12.808;2023-06-26T04:19:10;16.80;99.90
32839;DHT22;19182;41.820;12.808;2023-06-26T04:21:36;17.00;99.90
32839;DHT22;19182;41.820;12.808;2023-06-26T04:24:02;17.00;99.90
32839;DHT22;19182;41.820;12.808;2023-06-26T04:26:27;16.90;99.90
32839;DHT22;19182;41.820;12.808;2023-06-26T04:28:54;16.90;99.90
32839;DHT22;19182;41.820;12.808;2023-06-26T04:31:20;17.00;99.90
32839;DHT22;19182;41.820;12.808;2023-06-26T04:33:46;17.10;99.90
32839;DHT22;19182;41.820;12.808;2023-06-26T04:36:16;17.20;99.90
32839;DHT22;19182;41.820;12.808;2023-06-26T04:38:42;17.30;99.90
32839;DHT22;19182;41.820;12.808;2023-06-26T04:41:08;17.10;99.90
32839;DHT22;19182;41.820;12.808;2023-06-26T04:43:33;17.00;99.90
32839;DHT22;19182;41.820;12.808;2023-06-26T04:45:59;17.20;99.90
32839;DHT22;19182;41.820;12.808;2023-06-26T04:48:25;17.40;99.90
32839;DHT22;19182;41.820;12.808;2023-06-26T04:50:54;17.60;99.90
32839;DHT22;19182;41.820;12.808;2023-06-26T04:53:21;15.30;99.90
32839;DHT22;19182;41.820;12.808;2023-06-26T04:55:47;18.10;99.90
32839;DHT22;19182;41.820;12.808;2023-06-26T04:58:12;18.30;99.90
32839;DHT22;19182;41.820;12.808;2023-06-26T05:00:39;18.60;99.90
32839;DHT22;19182;41.820;12.808;2023-06-26T05:03:14;18.90;99.90
32839;DHT22;19182;41.820;12.808;2023-06-26T05:05:43;19.20;99.90
32839;DHT22;19182;41.820;12.808;2023-06-26T05:08:20;19.20;99.90
32839;DHT22;19182;41.820;12.808;2023-06-26T05:10:46;19.40;99.90
32839;DHT22;19182;41.820;12.808;2023-06-26T05:13:13;19.60;99.90
32839;DHT22;19182;41.820;12.808;2023-06-26T05:15:41;19.90;99.90
32839;DHT22;19182;41.820;12.808;2023-06-26T05:18:07;19.90;99.90
32839;DHT22;19182;41.820;12.808;2023-06-26T05:20:35;20.00;99.90
32839;DHT22;19182;41.820;12.808;2023-06-26T05:23:05;20.30;99.90
32839;DHT22;19182;41.820;12.808;2023-06-26T05:25:31;20.50;99.90
32839;DHT22;19182;41.820;12.808;2023-06-26T05:27:57;20.60;99.90
32839;DHT22;19182;41.820;12.808;2023-06-26T05:30:24;20.80;99.90
32839;DHT22;19182;41.820;12.808;2023-06-26T05:32:52;20.80;99.90
32839;DHT22;19182;41.820;12.808;2023-06-26T05:35:18;21.00;99.90
32839;DHT22;19182;41.820;12.808;2023-06-26T05:37:45;21.10;99.90
32839;DHT22;19182;41.820;12.808;2023-06-26T05:40:12;21.10;99.90
32839;DHT22;19182;41.820;12.808;2023-06-26T05:42:38;21.20;99.90
32839;DHT22;19182;41.820;12.808;2023-06-26T05:45:04;21.30;99.90
32839;DHT22;19182;41.820;12.808;2023-06-26T05:47:30;21.50;99.90
32839;DHT22;19182;41.820;12.808;2023-06-26T05:49:57;21.50;99.90
32839;DHT22;19182;41.820;12.808;2023-06-26T05:52:23;21.60;99.90
32839;DHT22;19182;41.820;12.808;2023-06-26T05:54:49;21.80;99.90
32839;DHT22;19182;41.820;12.808;2023-06-26T05:57:16;21.80;99.90
32839;DHT22;19182;41.820;12.808;2023-06-26T05:59:43;21.80;99.90
32839;DHT22;19182;41.820;12.808;2023-06-26T06:02:09;21.90;99.90
32839;DHT22;19182;41.820;12.808;2023-06-26T06:04:34;22.00;99.90
32839;DHT22;19182;41.820;12.808;2023-06-26T06:07:02;22.00;99.90
32839;DHT22;19182;41.820;12.808;2023-06-26T06:09:28;22.20;99.90
32839;DHT22;19182;41.820;12.808;2023-06-26T06:11:54;22.40;99.90
32839;DHT22;19182;41.820;12.808;2023-06-26T06:14:19;22.50;99.90
32839;DHT22;19182;41.820;12.808;2023-06-26T06:16:46;22.50;99.90
32839;DHT22;19182;41.820;12.808;2023-06-26T06:19:11;22.60;99.90
32839;DHT22;19182;41.820;12.808;2023-06-26T06:21:39;22.70;99.90
32839;DHT22;19182;41.820;12.808;2023-06-26T06:24:05;22.80;99.90
32839;DHT22;19182;41.820;12.808;2023-06-26T06:26:32;23.00;99.90
32839;DHT22;19182;41.820;12.808;2023-06-26T06:28:58;23.20;99.90
32839;DHT22;19182;41.820;12.808;2023-06-26T06:31:23;23.20;99.90
32839;DHT22;19182;41.820;12.808;2023-06-26T06:33:49;23.40;99.90
32839;DHT22;19182;41.820;12.808;2023-06-26T06:36:15;23.60;99.90
32839;DHT22;19182;41.820;12.808;2023-06-26T06:38:43;23.70;99.90
32839;DHT22;19182;41.820;12.808;2023-06-26T06:41:09;23.80;99.90
32839;DHT22;19182;41.820;12.808;2023-06-26T06:43:35;23.90;99.90
32839;DHT22;19182;41.820;12.808;2023-06-26T06:46:02;24.00;99.90
32839;DHT22;19182;41.820;12.808;2023-06-26T06:48:29;24.00;99.90
32839;DHT22;19182;41.820;12.808;2023-06-26T06:50:54;24.10;99.90
32839;DHT22;19182;41.820;12.808;2023-06-26T06:53:20;24.20;99.90
32839;DHT22;19182;41.820;12.808;2023-06-26T06:55:47;24.20;99.90
32839;DHT22;19182;41.820;12.808;2023-06-26T06:58:12;24.20;99.90
32839;DHT22;19182;41.820;12.808;2023-06-26T07:00:38;24.50;99.90
32839;DHT22;19182;41.820;12.808;2023-06-26T07:03:03;24.70;99.90
32839;DHT22;19182;41.820;12.808;2023-06-26T07:05:29;24.70;99.90
32839;DHT22;19182;41.820;12.808;2023-06-26T07:07:55;24.90;99.90
32839;DHT22;19182;41.820;12.808;2023-06-26T07:10:21;25.40;99.90
32839;DHT22;19182;41.820;12.808;2023-06-26T07:12:46;25.50;99.90
32839;DHT22;19182;41.820;12.808;2023-06-26T07:15:12;25.60;99.90
32839;DHT22;19182;41.820;12.808;2023-06-26T07:17:38;25.50;99.90
32839;DHT22;19182;41.820;12.808;2023-06-26T07:20:05;25.50;99.90
32839;DHT22;19182;41.820;12.808;2023-06-26T07:22:36;25.50;99.90
32839;DHT22;19182;41.820;12.808;2023-06-26T07:25:02;25.80;99.90
32839;DHT22;19182;41.820;12.808;2023-06-26T07:27:30;26.10;99.90
32839;DHT22;19182;41.820;12.808;2023-06-26T07:29:56;26.10;99.90
32839;DHT22;19182;41.820;12.808;2023-06-26T07:32:22;26.20;99.90
32839;DHT22;19182;41.820;12.808;2023-06-26T07:34:47;26.30;99.90
32839;DHT22;19182;41.820;12.808;2023-06-26T07:37:13;26.60;99.90
32839;DHT22;19182;41.820;12.808;2023-06-26T07:39:39;26.60;99.90
32839;DHT22;19182;41.820;12.808;2023-06-26T07:42:04;26.80;99.90
32839;DHT22;19182;41.820;12.808;2023-06-26T07:44:30;27.10;99.90
32839;DHT22;19182;41.820;12.808;2023-06-26T07:46:56;27.20;99.90
32839;DHT22;19182;41.820;12.808;2023-06-26T07:49:21;27.60;99.90
32839;DHT22;19182;41.820;12.808;2023-06-26T07:51:47;27.90;99.90
32839;DHT22;19182;41.820;12.808;2023-06-26T07:54:13;27.90;99.90
32839;DHT22;19182;41.820;12.808;2023-06-26T07:59:24;28.20;99.90
32839;DHT22;19182;41.820;12.808;2023-06-26T08:01:51;28.20;99.90
32839;DHT22;19182;41.820;12.808;2023-06-26T08:04:19;28.70;99.90
32839;DHT22;19182;41.820;12.808;2023-06-26T08:06:49;28.80;99.90
32839;DHT22;19182;41.820;12.808;2023-06-26T08:09:15;29.20;99.90
32839;DHT22;19182;41.820;12.808;2023-06-26T08:11:40;29.10;99.90
32839;DHT22;19182;41.820;12.808;2023-06-26T08:14:06;29.20;99.90
32839;DHT22;19182;41.820;12.808;2023-06-26T08:16:32;29.40;99.90
32839;DHT22;19182;41.820;12.808;2023-06-26T08:18:58;29.00;99.90
32839;DHT22;19182;41.820;12.808;2023-06-26T08:21:23;29.20;99.90
32839;DHT22;19182;41.820;12.808;2023-06-26T08:23:49;29.40;99.90
32839;DHT22;19182;41.820;12.808;2023-06-26T08:26:15;29.60;99.90
32839;DHT22;19182;41.820;12.808;2023-06-26T08:28:41;29.80;99.90
32839;DHT22;19182;41.820;12.808;2023-06-26T08:31:07;30.00;99.90
32839;DHT22;19182;41.820;12.808;2023-06-26T08:33:33;30.00;99.90
32839;DHT22;19182;41.820;12.808;2023-06-26T08:35:59;30.00;99.90
32839;DHT22;19182;41.820;12.808;2023-06-26T08:38:24;29.90;99.90
32839;DHT22;19182;41.820;12.808;2023-06-26T08:40:50;29.60;99.90
32839;DHT22;19182;41.820;12.808;2023-06-26T08:43:16;29.50;99.90
32839;DHT22;19182;41.820;12.808;2023-06-26T08:45:42;29.90;99.90
32839;DHT22;19182;41.820;12.808;2023-06-26T08:48:08;30.10;99.90
32839;DHT22;19182;41.820;12.808;2023-06-26T08:50:35;30.20;99.90
32839;DHT22;19182;41.820;12.808;2023-06-26T08:53:29;29.80;99.90
32839;DHT22;19182;41.820;12.808;2023-06-26T08:55:57;29.80;99.90
32839;DHT22;19182;41.820;12.808;2023-06-26T08:58:24;30.10;99.90
32839;DHT22;19182;41.820;12.808;2023-06-26T09:00:49;29.90;99.90
32839;DHT22;19182;41.820;12.808;2023-06-26T09:03:15;29.40;99.90
32839;DHT22;19182;41.820;12.808;2023-06-26T09:05:42;29.00;99.90
32839;DHT22;19182;41.820;12.808;2023-06-26T09:08:08;28.90;99.90
32839;DHT22;19182;41.820;12.808;2023-06-26T09:10:34;28.90;99.90
32839;DHT22;19182;41.820;12.808;2023-06-26T09:12:59;28.60;99.90
32839;DHT22;19182;41.820;12.808;2023-06-26T09:15:46;28.90;99.90
32839;DHT22;19182;41.820;12.808;2023-06-26T09:18:12;29.50;99.90
32839;DHT22;19182;41.820;12.808;2023-06-26T09:20:38;30.20;99.90
32839;DHT22;19182;41.820;12.808;2023-06-26T09:23:04;30.80;99.90
32839;DHT22;19182;41.820;12.808;2023-06-26T09:25:30;31.20;99.90
32839;DHT22;19182;41.820;12.808;2023-06-26T09:27:57;31.60;99.90
32839;DHT22;19182;41.820;12.808;2023-06-26T09:30:22;31.80;99.90
32839;DHT22;19182;41.820;12.808;2023-06-26T09:32:48;31.90;99.90
32839;DHT22;19182;41.820;12.808;2023-06-26T09:35:16;32.10;99.90
32839;DHT22;19182;41.820;12.808;2023-06-26T09:37:43;31.90;99.90
32839;DHT22;19182;41.820;12.808;2023-06-26T09:40:09;31.90;99.90
32839;DHT22;19182;41.820;12.808;2023-06-26T09:42:35;32.00;99.90
32839;DHT22;19182;41.820;12.808;2023-06-26T09:45:01;32.20;99.90
32839;DHT22;19182;41.820;12.808;2023-06-26T09:47:30;32.50;99.90
32839;DHT22;19182;41.820;12.808;2023-06-26T09:49:57;32.70;99.90
32839;DHT22;19182;41.820;12.808;2023-06-26T09:52:26;32.70;99.90
32839;DHT22;19182;41.820;12.808;2023-06-26T09:55:10;32.50;99.90
32839;DHT22;19182;41.820;12.808;2023-06-26T09:57:36;32.70;99.90
32839;DHT22;19182;41.820;12.808;2023-06-26T10:00:03;32.70;99.90
32839;DHT22;19182;41.820;12.808;2023-06-26T10:02:30;32.70;99.90
32839;DHT22;19182;41.820;12.808;2023-06-26T10:04:55;32.90;99.90
32839;DHT22;19182;41.820;12.808;2023-06-26T10:07:21;33.00;99.90
32839;DHT22;19182;41.820;12.808;2023-06-26T10:09:49;32.70;99.90
32839;DHT22;19182;41.820;12.808;2023-06-26T10:12:30;32.80;99.90
32839;DHT22;19182;41.820;12.808;2023-06-26T10:14:57;32.90;99.90
32839;DHT22;19182;41.820;12.808;2023-06-26T10:17:24;33.00;99.90
32839;DHT22;19182;41.820;12.808;2023-06-26T10:19:51;33.10;99.90
32839;DHT22;19182;41.820;12.808;2023-06-26T10:22:20;33.10;99.90
32839;DHT22;19182;41.820;12.808;2023-06-26T10:24:50;33.30;99.90
32839;DHT22;19182;41.820;12.808;2023-06-26T10:27:20;33.20;99.90
32839;DHT22;19182;41.820;12.808;2023-06-26T10:29:55;33.40;99.90
32839;DHT22;19182;41.820;12.808;2023-06-26T10:32:24;33.20;99.90
32839;DHT22;19182;41.820;12.808;2023-06-26T10:34:51;33.30;99.90
32839;DHT22;19182;41.820;12.808;2023-06-26T10:37:17;33.30;99.90
32839;DHT22;19182;41.820;12.808;2023-06-26T10:39:50;33.30;99.90
32839;DHT22;19182;41.820;12.808;2023-06-26T10:42:20;33.50;99.90
32839;DHT22;19182;41.820;12.808;2023-06-26T10:44:53;33.60;99.90
32839;DHT22;19182;41.820;12.808;2023-06-26T10:47:37;33.80;99.90
32839;DHT22;19182;41.820;12.808;2023-06-26T10:53:07;33.60;99.90
32839;DHT22;19182;41.820;12.808;2023-06-26T10:55:33;33.70;99.90
32839;DHT22;19182;41.820;12.808;2023-06-26T10:57:59;33.80;99.90
32839;DHT22;19182;41.820;12.808;2023-06-26T11:00:24;33.90;99.90
32839;DHT22;19182;41.820;12.808;2023-06-26T11:02:51;34.10;99.90
32839;DHT22;19182;41.820;12.808;2023-06-26T11:05:25;34.20;99.90
32839;DHT22;19182;41.820;12.808;2023-06-26T11:10:36;34.20;99.90
32839;DHT22;19182;41.820;12.808;2023-06-26T11:13:13;34.00;99.90
32839;DHT22;19182;41.820;12.808;2023-06-26T11:15:42;33.90;99.90
32839;DHT22;19182;41.820;12.808;2023-06-26T11:18:09;33.90;99.90
32839;DHT22;19182;41.820;12.808;2023-06-26T11:20:36;34.00;99.90
32839;DHT22;19182;41.820;12.808;2023-06-26T11:23:04;34.10;99.90
32839;DHT22;19182;41.820;12.808;2023-06-26T11:25:37;34.40;99.90
32839;DHT22;19182;41.820;12.808;2023-06-26T11:28:04;34.40;99.90
32839;DHT22;19182;41.820;12.808;2023-06-26T11:30:30;34.30;99.90
32839;DHT22;19182;41.820;12.808;2023-06-26T11:33:06;33.80;99.90
32839;DHT22;19182;41.820;12.808;2023-06-26T11:35:33;34.10;99.90
32839;DHT22;19182;41.820;12.808;2023-06-26T11:38:03;32.80;99.90
32839;DHT22;19182;41.820;12.808;2023-06-26T11:40:34;34.10;99.90
32839;DHT22;19182;41.820;12.808;2023-06-26T11:43:01;34.20;99.90
32839;DHT22;19182;41.820;12.808;2023-06-26T11:45:30;34.20;99.90
32839;DHT22;19182;41.820;12.808;2023-06-26T11:47:57;34.20;99.90
32839;DHT22;19182;41.820;12.808;2023-06-26T11:50:23;34.20;99.90
32839;DHT22;19182;41.820;12.808;2023-06-26T11:52:54;34.10;99.90
32839;DHT22;19182;41.820;12.808;2023-06-26T11:55:21;35.70;99.90
32839;DHT22;19182;41.820;12.808;2023-06-26T11:57:52;34.20;99.90
32839;DHT22;19182;41.820;12.808;2023-06-26T12:00:19;34.30;99.90
32839;DHT22;19182;41.820;12.808;2023-06-26T12:02:45;34.50;99.90
32839;DHT22;19182;41.820;12.808;2023-06-26T12:05:16;34.50;99.90
32839;DHT22;19182;41.820;12.808;2023-06-26T12:07:44;34.70;99.90
32839;DHT22;19182;41.820;12.808;2023-06-26T12:10:11;34.90;99.90
32839;DHT22;19182;41.820;12.808;2023-06-26T12:12:39;35.00;99.90
32839;DHT22;19182;41.820;12.808;2023-06-26T12:15:07;35.00;99.90
32839;DHT22;19182;41.820;12.808;2023-06-26T12:17:33;35.20;99.90
32839;DHT22;19182;41.820;12.808;2023-06-26T12:20:02;35.10;98.90
32839;DHT22;19182;41.820;12.808;2023-06-26T12:22:34;35.20;99.70
32839;DHT22;19182;41.820;12.808;2023-06-26T12:25:01;35.30;99.90
32839;DHT22;19182;41.820;12.808;2023-06-26T12:27:27;35.40;99.90
32839;DHT22;19182;41.820;12.808;2023-06-26T12:29:54;35.50;98.20
32839;DHT22;19182;41.820;12.808;2023-06-26T12:32:24;35.50;97.70
32839;DHT22;19182;41.820;12.808;2023-06-26T12:34:52;35.60;98.00
32839;DHT22;19182;41.820;12.808;2023-06-26T12:37:18;35.50;96.60
32839;DHT22;19182;41.820;12.808;2023-06-26T12:39:55;35.40;97.30
32839;DHT22;19182;41.820;12.808;2023-06-26T12:42:28;35.50;97.50
32839;DHT22;19182;41.820;12.808;2023-06-26T12:44:54;35.40;96.50
32839;DHT22;19182;41.820;12.808;2023-06-26T12:47:26;35.50;96.90
32839;DHT22;19182;41.820;12.808;2023-06-26T12:49:53;35.60;97.00
32839;DHT22;19182;41.820;12.808;2023-06-26T12:52:19;35.50;96.90
32839;DHT22;19182;41.820;12.808;2023-06-26T12:54:46;35.40;97.50
32839;DHT22;19182;41.820;12.808;2023-06-26T12:57:15;35.40;96.30
32839;DHT22;19182;41.820;12.808;2023-06-26T12:59:40;35.30;95.80
32839;DHT22;19182;41.820;12.808;2023-06-26T13:02:06;35.30;96.00
32839;DHT22;19182;41.820;12.808;2023-06-26T13:04:33;35.10;94.90
32839;DHT22;19182;41.820;12.808;2023-06-26T13:07:01;34.90;94.80
32839;DHT22;19182;41.820;12.808;2023-06-26T13:09:31;34.70;96.90
32839;DHT22;19182;41.820;12.808;2023-06-26T13:11:59;34.90;95.70
32839;DHT22;19182;41.820;12.808;2023-06-26T13:14:26;35.00;94.40
32839;DHT22;19182;41.820;12.808;2023-06-26T13:16:52;34.70;96.30
32839;DHT22;19182;41.820;12.808;2023-06-26T13:19:18;34.80;94.60
32839;DHT22;19182;41.820;12.808;2023-06-26T13:21:44;34.70;93.90
32839;DHT22;19182;41.820;12.808;2023-06-26T13:24:10;34.70;95.50
32839;DHT22;19182;41.820;12.808;2023-06-26T13:26:36;34.60;95.30
32839;DHT22;19182;41.820;12.808;2023-06-26T13:29:02;34.70;95.80
32839;DHT22;19182;41.820;12.808;2023-06-26T13:31:28;34.50;94.10
32839;DHT22;19182;41.820;12.808;2023-06-26T13:33:56;34.40;93.70
32839;DHT22;19182;41.820;12.808;2023-06-26T13:36:24;34.50;94.10
32839;DHT22;19182;41.820;12.808;2023-06-26T13:38:50;34.60;92.90
32839;DHT22;19182;41.820;12.808;2023-06-26T13:41:22;34.60;92.50
32839;DHT22;19182;41.820;12.808;2023-06-26T13:43:48;34.80;93.20
32839;DHT22;19182;41.820;12.808;2023-06-26T13:46:13;34.80;93.20
32839;DHT22;19182;41.820;12.808;2023-06-26T13:48:39;34.90;92.70
32839;DHT22;19182;41.820;12.808;2023-06-26T13:51:05;34.80;93.40
32839;DHT22;19182;41.820;12.808;2023-06-26T13:53:30;34.70;95.40
32839;DHT22;19182;41.820;12.808;2023-06-26T13:55:57;34.50;97.30
32839;DHT22;19182;41.820;12.808;2023-06-26T13:58:28;34.50;98.20
32839;DHT22;19182;41.820;12.808;2023-06-26T14:00:55;34.50;98.70
32839;DHT22;19182;41.820;12.808;2023-06-26T14:03:21;34.20;98.40
32839;DHT22;19182;41.820;12.808;2023-06-26T14:05:48;33.90;99.70
32839;DHT22;19182;41.820;12.808;2023-06-26T14:08:14;34.00;99.20
32839;DHT22;19182;41.820;12.808;2023-06-26T14:10:41;33.90;99.10
32839;DHT22;19182;41.820;12.808;2023-06-26T14:13:07;34.00;99.60
32839;DHT22;19182;41.820;12.808;2023-06-26T14:15:34;34.00;99.30
32839;DHT22;19182;41.820;12.808;2023-06-26T14:18:01;34.00;98.70
32839;DHT22;19182;41.820;12.808;2023-06-26T14:20:28;33.80;98.10
32839;DHT22;19182;41.820;12.808;2023-06-26T14:22:56;33.80;98.70
32839;DHT22;19182;41.820;12.808;2023-06-26T14:25:21;33.80;99.90
32839;DHT22;19182;41.820;12.808;2023-06-26T14:27:47;33.70;99.90
32839;DHT22;19182;41.820;12.808;2023-06-26T14:30:13;33.70;99.90
32839;DHT22;19182;41.820;12.808;2023-06-26T14:32:39;33.50;99.90
32839;DHT22;19182;41.820;12.808;2023-06-26T14:35:08;33.20;99.90
32839;DHT22;19182;41.820;12.808;2023-06-26T14:37:36;33.00;99.90
32839;DHT22;19182;41.820;12.808;2023-06-26T14:40:06;33.10;99.90
32839;DHT22;19182;41.820;12.808;2023-06-26T14:42:32;33.10;99.90
32839;DHT22;19182;41.820;12.808;2023-06-26T14:44:59;33.00;99.90
32839;DHT22;19182;41.820;12.808;2023-06-26T14:47:24;33.20;99.90
32839;DHT22;19182;41.820;12.808;2023-06-26T14:49:50;32.90;99.90
32839;DHT22;19182;41.820;12.808;2023-06-26T14:52:16;32.70;99.90
32839;DHT22;19182;41.820;12.808;2023-06-26T14:54:42;32.70;99.90
32839;DHT22;19182;41.820;12.808;2023-06-26T14:57:07;32.70;99.90
32839;DHT22;19182;41.820;12.808;2023-06-26T14:59:33;32.80;99.90
32839;DHT22;19182;41.820;12.808;2023-06-26T15:01:59;32.80;99.90
32839;DHT22;19182;41.820;12.808;2023-06-26T15:04:25;32.70;99.90
32839;DHT22;19182;41.820;12.808;2023-06-26T15:06:52;32.70;99.90
32839;DHT22;19182;41.820;12.808;2023-06-26T15:09:20;32.50;99.90
32839;DHT22;19182;41.820;12.808;2023-06-26T15:11:46;32.40;99.90
32839;DHT22;19182;41.820;12.808;2023-06-26T15:14:13;32.30;99.90
32839;DHT22;19182;41.820;12.808;2023-06-26T15:16:39;32.30;99.90
32839;DHT22;19182;41.820;12.808;2023-06-26T15:19:07;32.10;99.90
32839;DHT22;19182;41.820;12.808;2023-06-26T15:21:35;32.10;99.90
32839;DHT22;19182;41.820;12.808;2023-06-26T15:24:02;32.00;99.90
32839;DHT22;19182;41.820;12.808;2023-06-26T15:26:29;32.00;99.90